createdAt,value
2019-04-23T00:02:39.325Z,59.31
2019-04-23T00:05:08.255Z,59.75
2019-04-23T00:10:19.276Z,60.02
2019-04-23T00:12:52.764Z,60.50
2019-04-23T00:15:10.551Z,59.76
2019-04-23T00:17:48.987Z,59.91
2019-04-23T00:23:09.314Z,60.61
2019-04-23T00:25:49.750Z,60.94
2019-04-23T00:28:21.634Z,61.08
2019-04-23T00:31:06.325Z,61.43
2019-04-23T00:35:50.120Z,61.22
2019-04-23T00:38:26.523Z,61.27
2019-04-23T00:43:27.206Z,61.12
2019-04-23T00:45:55.238Z,62.03
2019-04-23T00:50:58.263Z,61.55
2019-04-23T00:53:46.712Z,61.64
2019-04-23T00:56:24.944Z,62.14
2019-04-23T01:01:27.204Z,62.27
2019-04-23T01:03:39.485Z,62.42
2019-04-23T01:06:12.962Z,62.69
2019-04-23T01:08:44.130Z,62.56
2019-04-23T01:11:16.669Z,62.08
2019-04-23T01:13:50.434Z,62.66
2019-04-23T01:16:18.220Z,62.41
2019-04-23T01:21:22.482Z,62.47
2019-04-23T01:24:19.268Z,62.15
2019-04-23T01:27:39.758Z,62.79
2019-04-23T01:32:32.175Z,62.34
2019-04-23T01:35:13.885Z,62.71
2019-04-23T01:37:39.502Z,62.42
2019-04-23T01:40:13.576Z,62.64
2019-04-23T01:42:40.481Z,62.58
2019-04-23T01:45:27.073Z,62.46
2019-04-23T01:47:45.602Z,62.96
2019-04-23T01:55:21.377Z,62.81
2019-04-23T01:57:58.534Z,62.77
2019-04-23T02:00:22.468Z,63.27
2019-04-23T02:02:57.496Z,62.53
2019-04-23T02:05:39.687Z,63.18
2019-04-23T02:13:02.245Z,63.61
2019-04-23T02:15:36.325Z,63.11
2019-04-23T02:20:42.747Z,63.07
2019-04-23T02:26:03.043Z,64.00
2019-04-23T02:28:53.148Z,64.03
2019-04-23T02:31:45.136Z,63.79
2019-04-23T02:33:53.465Z,63.95
2019-04-23T02:38:50.091Z,64.47
2019-04-23T02:41:27.130Z,64.35
2019-04-23T02:44:01.114Z,64.41
2019-04-23T02:46:13.381Z,64.41
2019-04-23T02:54:16.420Z,64.66
2019-04-23T02:56:41.421Z,64.27
2019-04-23T03:01:58.042Z,64.49
2019-04-23T03:06:47.777Z,64.15
2019-04-23T03:09:13.396Z,64.08
2019-04-23T03:14:16.875Z,64.37
2019-04-23T03:17:08.770Z,63.94
2019-04-23T03:22:37.745Z,64.33
2019-04-23T03:25:26.159Z,64.00
2019-04-23T03:34:26.489Z,63.79
2019-04-23T03:38:10.649Z,64.23
2019-04-23T03:40:15.768Z,64.36
2019-04-23T03:43:04.364Z,64.56
2019-04-23T03:45:36.953Z,63.96
2019-04-23T03:47:56.617Z,64.63
2019-04-23T03:50:35.331Z,64.28
2019-04-23T03:52:53.516Z,64.24
2019-04-23T03:55:39.894Z,64.61
2019-04-23T03:58:12.144Z,64.38
2019-04-23T04:05:49.716Z,64.37
2019-04-23T04:08:18.369Z,64.47
2019-04-23T04:13:28.490Z,64.72
2019-04-23T04:28:28.888Z,64.85
2019-04-23T04:33:49.113Z,64.69
2019-04-23T04:38:40.006Z,64.81
2019-04-23T04:48:40.229Z,65.23
2019-04-23T04:51:24.337Z,65.00
2019-04-23T05:01:28.354Z,65.03
2019-04-23T05:03:36.583Z,64.91
2019-04-23T05:06:24.703Z,64.67
2019-04-23T05:09:06.790Z,64.42
2019-04-23T05:11:34.975Z,64.62
2019-04-23T05:16:29.294Z,64.24
2019-04-23T05:19:23.485Z,64.23
2019-04-23T05:24:21.420Z,64.10
2019-04-23T05:26:37.516Z,64.16
2019-04-23T05:29:15.248Z,63.84
2019-04-23T05:32:10.130Z,63.98
2019-04-23T05:39:45.559Z,63.35
2019-04-23T05:42:15.721Z,63.42
2019-04-23T05:47:25.425Z,63.34
2019-04-23T05:50:00.667Z,62.99
2019-04-23T05:52:36.050Z,62.99
2019-04-23T05:55:08.784Z,62.91
2019-04-23T05:57:34.521Z,62.66
2019-04-23T06:00:10.742Z,62.66
2019-04-23T06:02:45.827Z,62.40
2019-04-23T06:05:16.115Z,63.03
2019-04-23T06:07:45.671Z,62.48
2019-04-23T06:10:13.267Z,62.36
2019-04-23T06:12:45.328Z,62.00
2019-04-23T06:15:20.198Z,62.02
2019-04-23T06:17:55.860Z,62.19
2019-04-23T06:20:28.501Z,61.57
2019-04-23T06:22:56.090Z,61.75
2019-04-23T06:25:47.821Z,61.43
2019-04-23T06:28:03.421Z,61.62
2019-04-23T06:30:38.749Z,61.72
2019-04-23T06:32:59.342Z,61.42
2019-04-23T06:35:39.407Z,61.37
2019-04-23T06:38:25.701Z,61.13
2019-04-23T06:40:34.299Z,61.22
2019-04-23T06:43:22.571Z,61.05
2019-04-23T06:45:42.872Z,60.53
2019-04-23T06:48:24.338Z,60.84
2019-04-23T06:51:02.381Z,60.34
2019-04-23T06:53:20.939Z,60.23
2019-04-23T06:55:59.515Z,60.40
2019-04-23T06:58:32.461Z,59.88
2019-04-23T07:01:00.392Z,59.77
2019-04-23T07:03:38.332Z,59.70
2019-04-23T07:11:23.479Z,59.50
2019-04-23T07:13:53.192Z,59.31
2019-04-23T07:16:14.640Z,58.96
2019-04-23T07:26:30.440Z,58.21
2019-04-23T07:29:07.462Z,58.65
2019-04-23T07:31:28.474Z,58.23
2019-04-23T07:34:01.039Z,58.07
2019-04-23T07:39:25.546Z,58.33
2019-04-23T07:42:10.834Z,57.91
2019-04-23T07:44:59.716Z,57.26
2019-04-23T07:47:47.303Z,57.44
2019-04-23T07:50:26.080Z,56.98
2019-04-23T07:52:51.484Z,57.29
2019-04-23T07:55:28.411Z,57.08
2019-04-23T07:57:59.024Z,57.46
2019-04-23T08:00:27.671Z,56.86
2019-04-23T08:03:02.234Z,56.94
2019-04-23T08:05:31.978Z,56.60
2019-04-23T08:13:10.021Z,56.24
2019-04-23T08:15:38.352Z,56.50
2019-04-23T08:18:07.029Z,55.68
2019-04-23T08:20:47.417Z,55.19
2019-04-23T08:23:25.631Z,55.44
2019-04-23T08:26:23.898Z,55.58
2019-04-23T08:28:51.634Z,56.21
2019-04-23T08:31:15.223Z,54.57
2019-04-23T08:33:51.298Z,54.44
2019-04-23T08:36:20.127Z,54.00
2019-04-23T08:38:50.800Z,55.44
2019-04-23T08:41:26.877Z,54.14
2019-04-23T08:44:01.011Z,55.61
2019-04-23T08:47:15.607Z,53.83
2019-04-23T08:49:36.219Z,54.45
2019-04-23T08:54:45.029Z,53.87
2019-04-23T08:59:45.222Z,53.70
2019-04-23T09:02:31.234Z,54.20
2019-04-23T09:07:16.471Z,52.20
2019-04-23T09:09:56.791Z,52.76
2019-04-23T09:12:18.442Z,52.81
2019-04-23T09:14:48.534Z,52.83
2019-04-23T09:17:21.199Z,53.61
2019-04-23T09:20:07.137Z,53.22
2019-04-23T09:22:29.621Z,52.20
2019-04-23T09:24:55.733Z,52.69
2019-04-23T09:27:27.317Z,51.94
2019-04-23T09:30:00.673Z,51.94
2019-04-23T09:32:28.359Z,51.53
2019-04-23T09:35:20.976Z,51.48
2019-04-23T09:38:07.263Z,52.02
2019-04-23T09:41:19.864Z,50.74
2019-04-23T09:44:07.672Z,49.66
2019-04-23T09:47:01.935Z,50.21
2019-04-23T09:49:32.734Z,50.98
2019-04-23T09:52:00.767Z,51.08
2019-04-23T09:54:33.935Z,51.04
2019-04-23T09:57:02.326Z,49.92
2019-04-23T09:59:40.926Z,49.26
2019-04-23T10:02:02.681Z,49.03
2019-04-23T10:04:26.596Z,48.70
2019-04-23T10:07:00.350Z,48.58
2019-04-23T10:09:16.680Z,48.94
2019-04-23T10:11:47.251Z,49.44
2019-04-23T10:14:18.651Z,48.95
2019-04-23T10:16:49.391Z,49.28
2019-04-23T10:19:19.565Z,48.81
2019-04-23T10:21:51.245Z,49.35
2019-04-23T10:24:21.470Z,48.43
2019-04-23T10:26:52.260Z,49.45
2019-04-23T10:29:25.836Z,48.07
2019-04-23T10:31:55.867Z,47.76
2019-04-23T10:34:27.407Z,48.10
2019-04-23T10:36:57.662Z,47.84
2019-04-23T10:39:32.411Z,47.87
2019-04-23T10:42:01.844Z,47.58
2019-04-23T10:45:10.863Z,46.94
2019-04-23T10:48:31.710Z,46.86
2019-04-23T10:51:25.615Z,47.37
2019-04-23T10:53:38.237Z,47.41
2019-04-23T10:56:13.519Z,47.58
2019-04-23T11:03:58.935Z,45.60
2019-04-23T11:06:23.427Z,45.98
2019-04-23T11:08:51.844Z,45.81
2019-04-23T11:11:24.136Z,47.66
2019-04-23T11:13:53.526Z,45.95
2019-04-23T11:21:47.678Z,45.27
2019-04-23T11:24:11.854Z,45.29
2019-04-23T11:26:34.459Z,45.92
2019-04-23T11:29:17.703Z,44.42
2019-04-23T11:31:44.930Z,44.80
2019-04-23T11:34:30.347Z,44.55
2019-04-23T11:39:18.802Z,45.51
2019-04-23T11:42:04.959Z,45.38
2019-04-23T11:49:44.987Z,43.33
2019-04-23T11:52:01.688Z,43.79
2019-04-23T11:54:27.742Z,43.42
2019-04-23T11:57:27.159Z,43.27
2019-04-23T12:02:06.342Z,44.58
2019-04-23T12:04:57.602Z,43.27
2019-04-23T12:07:23.837Z,43.92
2019-04-23T12:10:20.027Z,43.12
2019-04-23T12:15:18.423Z,43.44
2019-04-23T12:17:48.979Z,42.62
2019-04-23T12:20:21.436Z,43.56
2019-04-23T12:27:42.183Z,42.78
2019-04-23T12:30:36.243Z,42.00
2019-04-23T12:35:27.610Z,42.41
2019-04-23T12:38:14.248Z,42.73
2019-04-23T12:40:51.145Z,43.22
2019-04-23T12:43:13.300Z,42.84
2019-04-23T12:45:37.463Z,41.48
2019-04-23T12:48:29.688Z,41.43
2019-04-23T12:50:48.812Z,42.25
2019-04-23T12:53:25.857Z,41.69
2019-04-23T12:55:48.111Z,41.84
2019-04-23T13:00:48.233Z,42.48
2019-04-23T13:05:48.945Z,43.23
2019-04-23T13:08:44.622Z,43.79
2019-04-23T13:10:57.703Z,42.77
2019-04-23T13:16:02.521Z,42.27
2019-04-23T13:18:38.125Z,42.34
2019-04-23T13:21:05.329Z,42.27
2019-04-23T13:26:05.814Z,43.00
2019-04-23T13:28:45.202Z,43.91
2019-04-23T13:31:16.299Z,44.16
2019-04-23T13:36:29.053Z,43.63
2019-04-23T13:38:52.671Z,43.83
2019-04-23T13:43:47.889Z,44.36
2019-04-23T13:46:28.818Z,43.52
2019-04-23T13:48:58.907Z,43.74
2019-04-23T13:51:46.777Z,43.86
2019-04-23T13:54:08.165Z,43.97
2019-04-23T13:57:05.847Z,43.69
2019-04-23T14:01:39.557Z,44.70
2019-04-23T14:04:33.393Z,44.92
2019-04-23T14:09:39.516Z,45.49
2019-04-23T14:11:59.329Z,44.83
2019-04-23T14:14:41.324Z,44.01
2019-04-23T14:17:18.701Z,44.16
2019-04-23T14:19:34.310Z,44.19
2019-04-23T14:22:40.557Z,44.85
2019-04-23T14:24:54.602Z,44.59
2019-04-23T14:27:20.824Z,44.76
2019-04-23T14:32:30.772Z,44.52
2019-04-23T14:35:05.973Z,45.31
2019-04-23T14:37:16.808Z,45.15
2019-04-23T14:39:57.418Z,45.22
2019-04-23T14:42:33.787Z,45.68
2019-04-23T14:45:13.544Z,44.86
2019-04-23T14:47:47.840Z,45.40
2019-04-23T14:50:26.340Z,45.10
2019-04-23T14:52:38.837Z,44.90
2019-04-23T15:00:18.287Z,46.25
2019-04-23T15:05:19.803Z,45.64
2019-04-23T15:08:06.235Z,46.20
2019-04-23T15:12:52.302Z,45.77
2019-04-23T15:17:55.642Z,45.97
2019-04-23T15:20:33.143Z,46.04
2019-04-23T15:25:53.316Z,45.78
2019-04-23T15:30:34.110Z,46.08
2019-04-23T15:35:57.790Z,46.49
2019-04-23T15:40:42.072Z,46.60
2019-04-23T15:43:19.913Z,46.91
2019-04-23T15:45:52.337Z,46.56
2019-04-23T15:48:26.340Z,47.02
2019-04-23T15:50:51.682Z,46.61
2019-04-23T15:53:17.478Z,46.96
2019-04-23T15:55:59.589Z,46.83
2019-04-23T15:58:36.423Z,46.79
2019-04-23T16:01:27.134Z,47.20
2019-04-23T16:03:20.598Z,46.81
2019-04-23T16:05:51.016Z,46.98
2019-04-23T16:09:01.669Z,46.87
2019-04-23T16:16:38.756Z,47.62
2019-04-23T16:22:01.602Z,47.43
2019-04-23T16:24:22.277Z,47.22
2019-04-23T16:27:01.326Z,47.19
2019-04-23T16:32:10.039Z,47.42
2019-04-23T16:34:34.003Z,47.86
2019-04-23T16:37:15.355Z,47.34
2019-04-23T16:39:54.641Z,47.75
2019-04-23T16:45:05.992Z,47.50
2019-04-23T16:47:23.966Z,48.23
2019-04-23T16:50:04.552Z,47.90
2019-04-23T16:54:58.629Z,47.68
2019-04-23T16:57:35.971Z,48.04
2019-04-23T17:00:26.012Z,47.89
2019-04-23T17:02:34.388Z,47.79
2019-04-23T17:05:16.084Z,48.05
2019-04-23T17:07:53.353Z,48.07
2019-04-23T17:12:54.791Z,48.15
2019-04-23T17:15:27.422Z,48.03
2019-04-23T17:17:56.375Z,48.03
2019-04-23T17:23:31.237Z,48.89
2019-04-23T17:25:53.772Z,49.26
2019-04-23T17:31:03.932Z,48.98
2019-04-23T17:38:59.234Z,49.81
2019-04-23T17:41:48.646Z,49.78
2019-04-23T17:46:50.895Z,50.71
2019-04-23T17:49:28.658Z,50.87
2019-04-23T17:54:24.962Z,50.93
2019-04-23T17:57:02.953Z,51.40
2019-04-23T18:00:00.579Z,51.52
2019-04-23T18:02:40.667Z,51.44
2019-04-23T18:05:00.688Z,51.61
2019-04-23T18:07:34.007Z,52.03
2019-04-23T18:10:12.382Z,52.60
2019-04-23T18:12:40.523Z,52.51
2019-04-23T18:15:00.386Z,53.18
2019-04-23T18:17:37.769Z,53.22
2019-04-23T18:20:16.729Z,52.98
2019-04-23T18:22:53.920Z,53.06
2019-04-23T18:25:43.310Z,53.61
2019-04-23T18:28:22.636Z,53.68
2019-04-23T18:31:00.004Z,53.46
2019-04-23T18:34:00.618Z,53.58
2019-04-23T18:36:05.061Z,53.71
2019-04-23T18:38:52.995Z,53.90
2019-04-23T18:43:42.973Z,53.90
2019-04-23T18:46:18.669Z,54.57
2019-04-23T18:48:54.665Z,54.77
2019-04-23T18:51:15.317Z,54.88
2019-04-23T18:56:20.821Z,55.15
2019-04-23T18:59:00.855Z,55.70
2019-04-23T19:04:29.314Z,55.64
2019-04-23T19:06:44.163Z,55.55
2019-04-23T19:13:00.173Z,55.80
2019-04-23T19:15:36.791Z,56.47
2019-04-23T19:17:56.450Z,56.04
2019-04-23T19:20:56.247Z,56.21
2019-04-23T19:23:16.056Z,56.77
2019-04-23T19:25:38.724Z,56.35
2019-04-23T19:28:30.691Z,56.24
2019-04-23T19:31:07.420Z,57.00
2019-04-23T19:34:02.893Z,57.23
2019-04-23T19:36:19.056Z,57.80
2019-04-23T19:38:59.262Z,57.99
2019-04-23T19:41:19.548Z,57.69
2019-04-23T19:43:55.654Z,58.08
2019-04-23T19:46:33.973Z,58.08
2019-04-23T19:49:03.240Z,58.25
2019-04-23T19:51:37.187Z,58.31
2019-04-23T19:54:09.549Z,58.54
2019-04-23T19:56:37.740Z,60.02
2019-04-23T19:59:01.925Z,59.53
2019-04-23T20:01:43.489Z,60.00
2019-04-23T20:04:23.536Z,61.07
2019-04-23T20:09:30.286Z,61.02
2019-04-23T20:11:52.801Z,61.23
2019-04-23T20:14:11.835Z,61.61
2019-04-23T20:17:04.101Z,62.01
2019-04-23T20:19:23.913Z,62.21
2019-04-23T20:22:07.475Z,62.32
2019-04-23T20:24:49.434Z,62.22
2019-04-23T20:26:59.250Z,62.23
2019-04-23T20:30:02.810Z,61.89
2019-04-23T20:37:57.935Z,62.95
2019-04-23T20:40:23.547Z,62.98
2019-04-23T20:42:34.694Z,62.64
2019-04-23T20:45:04.844Z,63.81
2019-04-23T20:47:45.605Z,63.53
2019-04-23T20:50:03.726Z,63.46
2019-04-23T20:52:43.075Z,63.61
2019-04-23T20:55:19.721Z,63.59
2019-04-23T20:57:47.316Z,63.99
2019-04-23T21:00:35.930Z,63.40
2019-04-23T21:03:25.674Z,64.43
2019-04-23T21:06:00.276Z,63.90
2019-04-23T21:08:45.095Z,63.90
2019-04-23T21:15:45.670Z,64.42
2019-04-23T21:18:26.449Z,65.09
2019-04-23T21:20:48.849Z,65.03
2019-04-23T21:23:37.735Z,65.69
2019-04-23T21:28:36.563Z,64.66
2019-04-23T21:31:07.059Z,64.60
2019-04-23T21:33:46.120Z,64.60
2019-04-23T21:41:52.696Z,64.41
2019-04-23T21:44:13.544Z,64.89
2019-04-23T21:46:51.384Z,64.35
2019-04-23T21:49:24.763Z,65.39
2019-04-23T21:51:50.831Z,65.38
2019-04-23T21:54:27.374Z,65.34
2019-04-23T21:59:17.658Z,65.26
2019-04-23T22:01:59.063Z,64.84
2019-04-23T22:04:37.602Z,65.50
2019-04-23T22:07:02.531Z,64.34
2019-04-23T22:12:11.788Z,66.09
2019-04-23T22:14:40.024Z,65.62
2019-04-23T22:17:20.546Z,65.39
2019-04-23T22:19:49.912Z,65.40
2019-04-23T22:22:12.574Z,65.09
2019-04-23T22:24:48.309Z,65.57
2019-04-23T22:27:16.591Z,65.50
2019-04-23T22:32:31.123Z,65.19
2019-04-23T22:37:32.409Z,65.22
2019-04-23T22:39:58.952Z,64.99
2019-04-23T22:42:57.120Z,64.39
2019-04-23T22:45:12.267Z,65.30
2019-04-23T22:47:33.734Z,65.24
2019-04-23T22:50:05.899Z,64.77
2019-04-23T22:52:40.739Z,64.71
2019-04-23T22:55:07.380Z,64.25
2019-04-23T22:57:58.775Z,64.76
2019-04-23T23:00:14.421Z,65.25
2019-04-23T23:02:59.498Z,65.53
2019-04-23T23:05:53.106Z,65.25
2019-04-23T23:10:43.034Z,65.51
2019-04-23T23:15:46.213Z,64.82
2019-04-23T23:18:14.372Z,64.57
2019-04-23T23:20:46.363Z,65.21
2019-04-23T23:25:51.449Z,65.04
2019-04-23T23:30:57.984Z,65.30
2019-04-23T23:33:24.682Z,65.01
2019-04-23T23:36:03.602Z,65.31
2019-04-23T23:38:33.475Z,65.40
2019-04-23T23:41:12.400Z,65.37
2019-04-23T23:43:31.639Z,65.53
2019-04-23T23:46:17.269Z,65.77
2019-04-23T23:48:35.613Z,65.97
2019-04-23T23:53:50.558Z,66.48
2019-04-23T23:58:58.875Z,66.49
